sensor_id;sensor_type;location;lat;lon;timestamp;temperature;humidity
7796;DHT22;3942;51.518;6.912;2024-01-30T00:01:10;10.60;99.90
7796;DHT22;3942;51.518;6.912;2024-01-30T00:06:13;10.60;99.90
7796;DHT22;3942;51.518;6.912;2024-01-30T00:16:20;10.70;99.90
7796;DHT22;3942;51.518;6.912;2024-01-30T00:21:25;10.60;99.90
7796;DHT22;3942;51.518;6.912;2024-01-30T00:26:27;10.60;99.90
7796;DHT22;3942;51.518;6.912;2024-01-30T00:31:29;10.50;99.90
7796;DHT22;3942;51.518;6.912;2024-01-30T00:36:32;10.60;99.90
7796;DHT22;3942;51.518;6.912;2024-01-30T00:41:34;10.60;99.90
7796;DHT22;3942;51.518;6.912;2024-01-30T00:51:39;10.60;99.90
7796;DHT22;3942;51.518;6.912;2024-01-30T01:01:43;10.50;99.90
7796;DHT22;3942;51.518;6.912;2024-01-30T01:06:47;10.60;99.90
7796;DHT22;3942;51.518;6.912;2024-01-30T01:11:48;10.60;99.90
7796;DHT22;3942;51.518;6.912;2024-01-30T01:16:50;10.50;99.90
7796;DHT22;3942;51.518;6.912;2024-01-30T01:21:53;10.50;99.90
7796;DHT22;3942;51.518;6.912;2024-01-30T01:26:55;10.50;37.80
7796;DHT22;3942;51.518;6.912;2024-01-30T01:37:01;10.60;20.70
7796;DHT22;3942;51.518;6.912;2024-01-30T01:42:03;10.50;97.20
7796;DHT22;3942;51.518;6.912;2024-01-30T01:47:05;10.50;73.90
7796;DHT22;3942;51.518;6.912;2024-01-30T01:52:09;10.50;90.90
7796;DHT22;3942;51.518;6.912;2024-01-30T01:57:11;10.50;99.90
7796;DHT22;3942;51.518;6.912;2024-01-30T02:02:15;10.40;99.90
7796;DHT22;3942;51.518;6.912;2024-01-30T02:07:20;10.30;99.90
7796;DHT22;3942;51.518;6.912;2024-01-30T02:12:22;10.40;99.90
7796;DHT22;3942;51.518;6.912;2024-01-30T02:22:28;10.40;99.90
7796;DHT22;3942;51.518;6.912;2024-01-30T02:32:32;10.40;99.90
7796;DHT22;3942;51.518;6.912;2024-01-30T02:37:35;10.40;99.90
7796;DHT22;3942;51.518;6.912;2024-01-30T02:42:37;10.30;99.90
7796;DHT22;3942;51.518;6.912;2024-01-30T02:52:42;10.10;99.90
7796;DHT22;3942;51.518;6.912;2024-01-30T02:57:44;10.10;99.90
7796;DHT22;3942;51.518;6.912;2024-01-30T03:07:50;10.10;99.90
7796;DHT22;3942;51.518;6.912;2024-01-30T03:12:52;10.20;1.00
7796;DHT22;3942;51.518;6.912;2024-01-30T03:22:59;10.20;99.90
7796;DHT22;3942;51.518;6.912;2024-01-30T03:28:01;10.20;99.90
7796;DHT22;3942;51.518;6.912;2024-01-30T03:38:06;10.20;99.90
7796;DHT22;3942;51.518;6.912;2024-01-30T03:43:08;10.20;99.90
7796;DHT22;3942;51.518;6.912;2024-01-30T03:53:13;10.10;99.90
7796;DHT22;3942;51.518;6.912;2024-01-30T04:03:17;10.10;99.90
7796;DHT22;3942;51.518;6.912;2024-01-30T04:08:21;10.10;99.90
7796;DHT22;3942;51.518;6.912;2024-01-30T04:13:22;10.00;1.00
7796;DHT22;3942;51.518;6.912;2024-01-30T04:18:24;10.10;1.00
7796;DHT22;3942;51.518;6.912;2024-01-30T04:23:27;10.00;1.00
7796;DHT22;3942;51.518;6.912;2024-01-30T04:28:29;10.10;1.00
7796;DHT22;3942;51.518;6.912;2024-01-30T04:38:35;10.00;1.00
7796;DHT22;3942;51.518;6.912;2024-01-30T04:48:38;9.90;1.00
7796;DHT22;3942;51.518;6.912;2024-01-30T04:53:42;10.00;1.00
7796;DHT22;3942;51.518;6.912;2024-01-30T05:03:46;10.00;1.00
7796;DHT22;3942;51.518;6.912;2024-01-30T05:08:49;10.00;1.00
7796;DHT22;3942;51.518;6.912;2024-01-30T05:13:51;9.80;1.00
7796;DHT22;3942;51.518;6.912;2024-01-30T05:23:56;9.90;41.40
7796;DHT22;3942;51.518;6.912;2024-01-30T05:28:58;9.90;49.80
7796;DHT22;3942;51.518;6.912;2024-01-30T05:39:03;9.90;99.90
7796;DHT22;3942;51.518;6.912;2024-01-30T05:44:05;9.80;99.90
7796;DHT22;3942;51.518;6.912;2024-01-30T05:49:07;9.80;99.90
7796;DHT22;3942;51.518;6.912;2024-01-30T05:54:10;9.90;99.90
7796;DHT22;3942;51.518;6.912;2024-01-30T05:59:12;9.90;99.90
7796;DHT22;3942;51.518;6.912;2024-01-30T06:09:17;9.80;99.90
7796;DHT22;3942;51.518;6.912;2024-01-30T06:24:25;9.90;99.90
7796;DHT22;3942;51.518;6.912;2024-01-30T06:29:28;9.90;99.90
7796;DHT22;3942;51.518;6.912;2024-01-30T06:34:30;9.90;99.90
7796;DHT22;3942;51.518;6.912;2024-01-30T06:39:33;9.90;99.90
7796;DHT22;3942;51.518;6.912;2024-01-30T06:44:35;9.90;99.90
7796;DHT22;3942;51.518;6.912;2024-01-30T06:49:36;9.90;1.00
7796;DHT22;3942;51.518;6.912;2024-01-30T06:54:40;9.90;1.00
7796;DHT22;3942;51.518;6.912;2024-01-30T07:04:44;9.90;1.00
7796;DHT22;3942;51.518;6.912;2024-01-30T07:09:47;9.90;1.00
7796;DHT22;3942;51.518;6.912;2024-01-30T07:14:53;9.90;1.00
7796;DHT22;3942;51.518;6.912;2024-01-30T07:19:57;9.90;1.00
7796;DHT22;3942;51.518;6.912;2024-01-30T07:25:00;9.90;4.00
7796;DHT22;3942;51.518;6.912;2024-01-30T07:30:02;10.00;1.00
7796;DHT22;3942;51.518;6.912;2024-01-30T07:35:04;10.10;1.00
7796;DHT22;3942;51.518;6.912;2024-01-30T07:40:08;10.10;1.00
7796;DHT22;3942;51.518;6.912;2024-01-30T07:45:10;10.10;1.00
7796;DHT22;3942;51.518;6.912;2024-01-30T07:50:12;10.10;1.00
7796;DHT22;3942;51.518;6.912;2024-01-30T07:55:15;10.10;1.00
7796;DHT22;3942;51.518;6.912;2024-01-30T08:00:18;10.10;1.00
7796;DHT22;3942;51.518;6.912;2024-01-30T08:05:20;10.10;1.00
7796;DHT22;3942;51.518;6.912;2024-01-30T08:10:25;10.10;1.00
7796;DHT22;3942;51.518;6.912;2024-01-30T08:15:27;10.10;1.00
7796;DHT22;3942;51.518;6.912;2024-01-30T08:20:28;10.00;84.10
7796;DHT22;3942;51.518;6.912;2024-01-30T08:25:32;10.20;54.30
7796;DHT22;3942;51.518;6.912;2024-01-30T08:30:33;10.20;47.30
7796;DHT22;3942;51.518;6.912;2024-01-30T08:35:36;10.20;99.90
7796;DHT22;3942;51.518;6.912;2024-01-30T08:40:40;10.20;99.90
7796;DHT22;3942;51.518;6.912;2024-01-30T08:50:44;10.20;99.90
7796;DHT22;3942;51.518;6.912;2024-01-30T08:55:47;10.30;99.90
7796;DHT22;3942;51.518;6.912;2024-01-30T09:00:49;10.30;99.90
7796;DHT22;3942;51.518;6.912;2024-01-30T09:10:56;10.30;86.00
7796;DHT22;3942;51.518;6.912;2024-01-30T09:15:58;10.20;99.90
7796;DHT22;3942;51.518;6.912;2024-01-30T09:21:00;10.40;99.90
7796;DHT22;3942;51.518;6.912;2024-01-30T09:26:03;10.30;99.90
7796;DHT22;3942;51.518;6.912;2024-01-30T09:31:09;10.40;99.90
7796;DHT22;3942;51.518;6.912;2024-01-30T09:41:18;10.50;99.90
7796;DHT22;3942;51.518;6.912;2024-01-30T09:46:21;10.70;99.90
7796;DHT22;3942;51.518;6.912;2024-01-30T09:51:25;11.00;1.00
7796;DHT22;3942;51.518;6.912;2024-01-30T09:56:29;11.10;99.90
7796;DHT22;3942;51.518;6.912;2024-01-30T10:01:31;11.30;99.90
7796;DHT22;3942;51.518;6.912;2024-01-30T10:06:37;11.40;99.90
7796;DHT22;3942;51.518;6.912;2024-01-30T10:11:40;11.40;61.10
7796;DHT22;3942;51.518;6.912;2024-01-30T10:16:42;11.50;1.00
7796;DHT22;3942;51.518;6.912;2024-01-30T10:21:46;11.60;1.00
7796;DHT22;3942;51.518;6.912;2024-01-30T10:26:50;11.50;1.00
7796;DHT22;3942;51.518;6.912;2024-01-30T10:31:58;11.50;1.00
7796;DHT22;3942;51.518;6.912;2024-01-30T10:37:07;11.50;1.00
7796;DHT22;3942;51.518;6.912;2024-01-30T10:42:15;11.50;1.00
7796;DHT22;3942;51.518;6.912;2024-01-30T10:47:21;11.60;1.00
7796;DHT22;3942;51.518;6.912;2024-01-30T10:52:29;11.70;1.00
7796;DHT22;3942;51.518;6.912;2024-01-30T10:57:34;11.80;1.00
7796;DHT22;3942;51.518;6.912;2024-01-30T11:02:37;11.70;1.00
7796;DHT22;3942;51.518;6.912;2024-01-30T11:07:40;11.80;1.00
7796;DHT22;3942;51.518;6.912;2024-01-30T11:12:45;11.80;1.00
7796;DHT22;3942;51.518;6.912;2024-01-30T11:17:50;11.70;1.00
7796;DHT22;3942;51.518;6.912;2024-01-30T11:22:54;11.80;1.00
7796;DHT22;3942;51.518;6.912;2024-01-30T11:27:58;11.80;1.00
7796;DHT22;3942;51.518;6.912;2024-01-30T11:33:00;11.80;13.60
7796;DHT22;3942;51.518;6.912;2024-01-30T11:38:04;11.80;11.50
7796;DHT22;3942;51.518;6.912;2024-01-30T11:43:08;11.90;36.50
7796;DHT22;3942;51.518;6.912;2024-01-30T11:48:11;11.90;66.80
7796;DHT22;3942;51.518;6.912;2024-01-30T11:53:13;11.80;1.00
7796;DHT22;3942;51.518;6.912;2024-01-30T11:58:17;11.80;87.60
7796;DHT22;3942;51.518;6.912;2024-01-30T12:03:18;11.80;99.90
7796;DHT22;3942;51.518;6.912;2024-01-30T12:08:20;11.80;99.90
7796;DHT22;3942;51.518;6.912;2024-01-30T12:13:24;11.90;99.90
7796;DHT22;3942;51.518;6.912;2024-01-30T12:28:31;11.90;1.00
7796;DHT22;3942;51.518;6.912;2024-01-30T12:33:33;11.90;1.00
7796;DHT22;3942;51.518;6.912;2024-01-30T12:43:41;11.90;1.00
7796;DHT22;3942;51.518;6.912;2024-01-30T12:48:43;11.90;99.90
7796;DHT22;3942;51.518;6.912;2024-01-30T12:58:50;12.00;1.00
7796;DHT22;3942;51.518;6.912;2024-01-30T13:03:52;11.90;1.00
7796;DHT22;3942;51.518;6.912;2024-01-30T13:13:58;12.00;68.60
7796;DHT22;3942;51.518;6.912;2024-01-30T13:18:59;11.90;99.90
7796;DHT22;3942;51.518;6.912;2024-01-30T13:24:02;11.90;99.90
7796;DHT22;3942;51.518;6.912;2024-01-30T13:29:06;11.90;99.90
7796;DHT22;3942;51.518;6.912;2024-01-30T13:34:07;12.00;99.90
7796;DHT22;3942;51.518;6.912;2024-01-30T13:44:14;12.00;1.00
7796;DHT22;3942;51.518;6.912;2024-01-30T13:54:20;12.00;1.00
7796;DHT22;3942;51.518;6.912;2024-01-30T13:59:23;12.10;1.00
7796;DHT22;3942;51.518;6.912;2024-01-30T14:04:26;12.10;1.00
7796;DHT22;3942;51.518;6.912;2024-01-30T14:14:31;12.10;1.00
7796;DHT22;3942;51.518;6.912;2024-01-30T14:19:34;12.10;1.00
7796;DHT22;3942;51.518;6.912;2024-01-30T14:24:36;12.20;99.90
7796;DHT22;3942;51.518;6.912;2024-01-30T14:29:40;12.20;99.90
7796;DHT22;3942;51.518;6.912;2024-01-30T14:34:43;12.30;99.90
7796;DHT22;3942;51.518;6.912;2024-01-30T14:39:45;12.30;99.90
7796;DHT22;3942;51.518;6.912;2024-01-30T14:44:49;12.20;1.00
7796;DHT22;3942;51.518;6.912;2024-01-30T14:54:53;12.20;99.90
7796;DHT22;3942;51.518;6.912;2024-01-30T14:59:56;12.00;99.90
7796;DHT22;3942;51.518;6.912;2024-01-30T15:04:58;12.00;1.00
7796;DHT22;3942;51.518;6.912;2024-01-30T15:10:01;11.90;99.90
7796;DHT22;3942;51.518;6.912;2024-01-30T15:15:07;11.90;99.90
7796;DHT22;3942;51.518;6.912;2024-01-30T15:20:09;11.90;99.90
7796;DHT22;3942;51.518;6.912;2024-01-30T15:25:11;11.90;99.90
7796;DHT22;3942;51.518;6.912;2024-01-30T15:30:15;11.90;1.00
7796;DHT22;3942;51.518;6.912;2024-01-30T15:35:17;11.80;99.90
7796;DHT22;3942;51.518;6.912;2024-01-30T15:45:22;11.70;24.70
7796;DHT22;3942;51.518;6.912;2024-01-30T15:50:24;11.70;72.20
7796;DHT22;3942;51.518;6.912;2024-01-30T16:00:29;11.50;33.00
7796;DHT22;3942;51.518;6.912;2024-01-30T16:10:33;11.40;37.40
7796;DHT22;3942;51.518;6.912;2024-01-30T16:15:38;11.40;91.60
7796;DHT22;3942;51.518;6.912;2024-01-30T16:20:40;11.20;44.60
7796;DHT22;3942;51.518;6.912;2024-01-30T16:25:44;11.20;49.40
7796;DHT22;3942;51.518;6.912;2024-01-30T16:30:47;11.30;1.00
7796;DHT22;3942;51.518;6.912;2024-01-30T16:40:51;11.30;99.90
7796;DHT22;3942;51.518;6.912;2024-01-30T16:45:54;11.20;1.00
7796;DHT22;3942;51.518;6.912;2024-01-30T16:50:56;11.20;1.00
7796;DHT22;3942;51.518;6.912;2024-01-30T17:01:01;11.20;1.00
7796;DHT22;3942;51.518;6.912;2024-01-30T17:16:12;11.10;1.00
7796;DHT22;3942;51.518;6.912;2024-01-30T17:21:16;10.90;1.00
7796;DHT22;3942;51.518;6.912;2024-01-30T17:26:18;10.90;1.00
7796;DHT22;3942;51.518;6.912;2024-01-30T17:31:22;10.60;1.00
7796;DHT22;3942;51.518;6.912;2024-01-30T17:41:26;10.50;13.40
7796;DHT22;3942;51.518;6.912;2024-01-30T17:46:29;10.50;99.90
7796;DHT22;3942;51.518;6.912;2024-01-30T17:56:34;10.30;1.00
7796;DHT22;3942;51.518;6.912;2024-01-30T18:01:37;10.40;99.90
7796;DHT22;3942;51.518;6.912;2024-01-30T18:16:45;10.40;99.90
7796;DHT22;3942;51.518;6.912;2024-01-30T18:21:46;10.40;99.90
7796;DHT22;3942;51.518;6.912;2024-01-30T18:26:49;10.30;99.90
7796;DHT22;3942;51.518;6.912;2024-01-30T18:31:52;10.30;99.90
7796;DHT22;3942;51.518;6.912;2024-01-30T18:36:54;10.30;99.90
7796;DHT22;3942;51.518;6.912;2024-01-30T18:41:58;10.20;99.90
7796;DHT22;3942;51.518;6.912;2024-01-30T18:47:01;10.30;99.90
7796;DHT22;3942;51.518;6.912;2024-01-30T18:52:04;10.20;99.90
7796;DHT22;3942;51.518;6.912;2024-01-30T18:57:06;10.20;99.90
7796;DHT22;3942;51.518;6.912;2024-01-30T19:02:09;10.20;99.90
7796;DHT22;3942;51.518;6.912;2024-01-30T19:17:17;10.20;1.00
7796;DHT22;3942;51.518;6.912;2024-01-30T19:22:19;10.20;99.90
7796;DHT22;3942;51.518;6.912;2024-01-30T19:32:25;10.10;99.90
7796;DHT22;3942;51.518;6.912;2024-01-30T19:37:27;10.00;99.90
7796;DHT22;3942;51.518;6.912;2024-01-30T19:42:28;10.00;1.00
7796;DHT22;3942;51.518;6.912;2024-01-30T19:47:32;9.90;99.90
7796;DHT22;3942;51.518;6.912;2024-01-30T19:57:37;9.80;99.90
7796;DHT22;3942;51.518;6.912;2024-01-30T20:02:40;9.80;1.00
7796;DHT22;3942;51.518;6.912;2024-01-30T20:07:42;9.80;1.00
7796;DHT22;3942;51.518;6.912;2024-01-30T20:12:44;9.80;1.00
7796;DHT22;3942;51.518;6.912;2024-01-30T20:17:47;9.80;1.00
7796;DHT22;3942;51.518;6.912;2024-01-30T20:22:49;9.80;1.00
7796;DHT22;3942;51.518;6.912;2024-01-30T20:32:55;9.70;99.90
7796;DHT22;3942;51.518;6.912;2024-01-30T20:37:57;9.60;99.90
7796;DHT22;3942;51.518;6.912;2024-01-30T20:48:03;9.70;99.90
7796;DHT22;3942;51.518;6.912;2024-01-30T20:53:04;9.60;1.00
7796;DHT22;3942;51.518;6.912;2024-01-30T20:58:07;9.60;1.00
7796;DHT22;3942;51.518;6.912;2024-01-30T21:03:10;9.60;1.00
7796;DHT22;3942;51.518;6.912;2024-01-30T21:13:15;9.60;1.00
7796;DHT22;3942;51.518;6.912;2024-01-30T21:18:18;9.60;1.00
7796;DHT22;3942;51.518;6.912;2024-01-30T21:23:20;9.60;48.80
7796;DHT22;3942;51.518;6.912;2024-01-30T21:28:22;9.60;99.90
7796;DHT22;3942;51.518;6.912;2024-01-30T21:33:25;9.60;99.90
7796;DHT22;3942;51.518;6.912;2024-01-30T21:38:27;9.50;99.90
7796;DHT22;3942;51.518;6.912;2024-01-30T21:43:29;9.40;1.00
7796;DHT22;3942;51.518;6.912;2024-01-30T21:48:32;9.40;23.10
7796;DHT22;3942;51.518;6.912;2024-01-30T21:53:34;9.50;99.90
7796;DHT22;3942;51.518;6.912;2024-01-30T22:03:39;9.40;1.00
7796;DHT22;3942;51.518;6.912;2024-01-30T22:18:47;9.40;38.80
7796;DHT22;3942;51.518;6.912;2024-01-30T22:33:57;9.30;1.00
7796;DHT22;3942;51.518;6.912;2024-01-30T22:39:02;9.20;99.90
7796;DHT22;3942;51.518;6.912;2024-01-30T22:44:05;9.20;99.90
7796;DHT22;3942;51.518;6.912;2024-01-30T22:49:08;9.20;1.00
7796;DHT22;3942;51.518;6.912;2024-01-30T22:59:12;9.10;99.90
7796;DHT22;3942;51.518;6.912;2024-01-30T23:04:15;9.00;99.90
7796;DHT22;3942;51.518;6.912;2024-01-30T23:09:17;9.10;99.90
7796;DHT22;3942;51.518;6.912;2024-01-30T23:19:22;8.90;99.90
7796;DHT22;3942;51.518;6.912;2024-01-30T23:34:30;9.10;99.90
7796;DHT22;3942;51.518;6.912;2024-01-30T23:39:31;9.00;99.90
7796;DHT22;3942;51.518;6.912;2024-01-30T23:49:37;8.90;99.90
